PER weather

Perth International Airport
Perth, Western Australia, Australia

Public forecast

Using degrees Celsius for public forecast. Weather courtesy of forecast.io.

METAR (pilot weather report)

Retrieved 2018/06/18 04:35 UTC (12 minutes ago):

YPPH 180435Z 24017G29KT 9999 SCT031 16/08 Q1016 INTER 0435/0700 25020G30KT 7000 SHRA SCT020

TAF (pilot weather forecast)

Forecast is more than 12 hours old.

Retrieved 2018/06/17 00:00 UTC (1 day ago):

TAF YPPH 172303Z 1800/1906 25014KT 9999 -SHRA BKN035 FM181000 23005KT 9999 -SHRA BKN040 FM190200 30010KT 9999 -SHRA BKN030 INTER 1800/1808 25020G30KT 4000 SHRA SCT015 INTER 1902/1906 26015G25KT 4000 SHRA BKN015